Time;durP1;ratioP1;P1;durP2;ratioP2;P2;SDS_P1;SDS_P2;PMS_P1;PMS_P2;Temp;Humidity;BMP_temperature;BMP_pressure;BME280_temperature;BME280_humidity;BME280_pressure;Samples;Min_cycle;Max_cycle;Signal;HPM_P1;HPM_P2
2024/01/29 00:02:23;;;;;;;73.65;51.03;;;3.20;33.40;;;;;;5102337;28;20046;-78
2024/01/29 00:04:48;;;;;;;74.47;49.50;;;3.20;18.90;;;;;;5101490;28;20058;-78
2024/01/29 00:07:14;;;;;;;93.40;57.67;;;3.00;2.10;;;;;;5115377;27;20024;-78
2024/01/29 00:09:41;;;;;;;88.22;55.22;;;3.00;24.20;;;;;;5104559;28;20081;-78
2024/01/29 00:12:07;;;;;;;88.90;55.05;;;2.90;25.70;;;;;;5102283;28;20028;-78
2024/01/29 00:14:32;;;;;;;86.50;56.03;;;2.80;17.40;;;;;;5116117;27;20026;-78
2024/01/29 00:17:00;;;;;;;81.47;53.13;;;2.80;13.30;;;;;;5103877;28;20121;-78
2024/01/29 00:19:26;;;;;;;78.00;52.35;;;2.70;8.40;;;;;;5105294;28;20027;-76
2024/01/29 00:21:51;;;;;;;79.55;52.90;;;2.70;28.20;;;;;;5101467;28;20024;-78
2024/01/29 00:24:17;;;;;;;70.97;48.47;;;2.70;42.00;;;;;;5104717;28;20105;-78
2024/01/29 00:26:43;;;;;;;68.30;47.08;;;2.60;41.10;;;;;;5101197;28;20020;-76
2024/01/29 00:29:10;;;;;;;67.07;47.70;;;2.60;37.20;;;;;;5117632;27;20024;-76
2024/01/29 00:31:35;;;;;;;65.78;46.30;;;2.50;38.10;;;;;;5119301;27;20031;-78
2024/01/29 00:34:01;;;;;;;66.03;46.87;;;2.40;20.80;;;;;;5102929;28;20024;-77
2024/01/29 00:36:28;;;;;;;66.23;47.37;;;2.40;40.30;;;;;;5103039;28;20028;-78
2024/01/29 00:38:54;;;;;;;67.30;46.73;;;2.30;39.20;;;;;;5104091;28;20028;-78
2024/01/29 00:41:19;;;;;;;69.73;47.50;;;2.40;53.00;;;;;;5101903;28;20052;-78
2024/01/29 00:43:45;;;;;;;60.17;43.70;;;2.30;48.10;;;;;;5103985;28;20437;-78
2024/01/29 00:46:11;;;;;;;61.30;44.47;;;2.30;52.30;;;;;;5101544;28;20020;-78
2024/01/29 00:48:37;;;;;;;65.07;45.20;;;2.30;35.30;;;;;;5106718;28;20066;-78
2024/01/29 00:51:03;;;;;;;60.50;43.57;;;2.30;35.40;;;;;;5116456;27;20317;-78
2024/01/29 00:53:29;;;;;;;66.23;47.30;;;2.30;34.70;;;;;;5104115;28;20034;-78
2024/01/29 00:55:55;;;;;;;63.27;45.63;;;2.20;49.10;;;;;;5100643;28;20032;-78
2024/01/29 00:58:21;;;;;;;60.60;43.97;;;2.20;46.20;;;;;;5104475;28;20050;-78
2024/01/29 01:00:48;;;;;;;66.93;46.60;;;2.20;33.60;;;;;;5101748;28;20024;-78
2024/01/29 01:03:14;;;;;;;56.20;40.97;;;2.20;19.00;;;;;;5118610;27;20088;-78
2024/01/29 01:05:40;;;;;;;56.87;41.60;;;2.10;6.90;;;;;;5102653;28;20472;-78
2024/01/29 01:08:06;;;;;;;59.40;43.97;;;2.00;16.50;;;;;;5102060;28;20386;-78
2024/01/29 01:10:31;;;;;;;66.23;44.73;;;2.00;38.40;;;;;;5081778;28;20035;-78
2024/01/29 01:12:57;;;;;;;63.43;45.83;;;2.00;53.60;;;;;;5103276;28;20056;-78
2024/01/29 01:15:23;;;;;;;60.50;45.10;;;2.00;63.60;;;;;;5101120;28;20035;-78
2024/01/29 01:17:49;;;;;;;63.83;45.23;;;2.00;48.40;;;;;;5123617;27;20027;-78
2024/01/29 01:20:15;;;;;;;59.60;44.13;;;1.90;33.80;;;;;;5115969;27;20395;-77
2024/01/29 01:22:40;;;;;;;59.90;43.53;;;1.90;30.70;;;;;;5120078;27;20241;-78
2024/01/29 01:25:07;;;;;;;61.80;44.03;;;1.80;26.60;;;;;;5103417;28;20023;-77
2024/01/29 01:27:33;;;;;;;64.80;45.03;;;1.80;32.90;;;;;;5100880;28;20020;-78
2024/01/29 01:29:59;;;;;;;67.20;44.50;;;1.80;65.10;;;;;;5102912;28;20030;-78
2024/01/29 01:32:25;;;;;;;36.43;26.70;;;1.80;82.00;;;;;;5101561;28;20020;-78
2024/01/29 01:34:50;;;;;;;50.33;35.53;;;2.10;15.60;;;;;;5102196;28;20081;-78
2024/01/29 01:37:16;;;;;;;23.97;15.07;;;2.10;58.00;;;;;;5102393;28;20051;-78
2024/01/29 01:39:42;;;;;;;4.90;4.50;;;2.30;1.00;;;;;;5108484;28;20102;-78
2024/01/29 01:42:08;;;;;;;2.97;2.67;;;2.70;99.90;;;;;;5102442;28;20440;-78
2024/01/29 01:44:34;;;;;;;2.20;2.00;;;2.90;99.90;;;;;;5090610;28;20471;-78
2024/01/29 01:47:00;;;;;;;2.90;2.50;;;3.10;99.90;;;;;;5103334;28;20047;-77
2024/01/29 01:49:27;;;;;;;1.60;1.50;;;3.30;99.90;;;;;;5104026;28;20062;-77
2024/01/29 01:51:53;;;;;;;4.03;1.95;;;3.40;99.90;;;;;;5099832;28;20020;-78
2024/01/29 01:54:20;;;;;;;1.93;1.83;;;3.50;71.30;;;;;;5103158;28;20069;-78
2024/01/29 01:56:48;;;;;;;2.17;2.08;;;3.60;1.00;;;;;;5100254;28;20032;-78
2024/01/29 01:59:14;;;;;;;2.45;2.20;;;3.70;1.00;;;;;;5093575;28;20020;-78
2024/01/29 02:01:40;;;;;;;1.73;1.63;;;3.80;99.90;;;;;;5104835;28;20536;-78
2024/01/29 02:04:08;;;;;;;2.10;1.90;;;3.80;1.00;;;;;;5085180;28;20430;-78
2024/01/29 02:06:34;;;;;;;2.22;2.10;;;3.90;1.00;;;;;;5102380;28;20525;-78
2024/01/29 02:09:01;;;;;;;2.15;1.92;;;3.90;99.90;;;;;;5103508;28;20027;-78
2024/01/29 02:11:26;;;;;;;2.50;2.30;;;3.90;99.90;;;;;;5081429;28;20147;-77
2024/01/29 02:13:52;;;;;;;2.38;2.00;;;4.00;99.90;;;;;;5103505;28;20032;-78
2024/01/29 02:16:18;;;;;;;2.70;2.50;;;4.00;99.90;;;;;;5099625;28;20059;-77
2024/01/29 02:18:44;;;;;;;2.10;2.00;;;4.10;99.90;;;;;;5090358;28;20151;-78
2024/01/29 02:21:10;;;;;;;2.92;2.25;;;4.10;99.90;;;;;;5102616;28;20019;-77
2024/01/29 02:23:36;;;;;;;3.15;2.13;;;4.10;99.90;;;;;;5100320;28;20023;-77
2024/01/29 02:26:02;;;;;;;15.95;11.20;;;4.20;99.90;;;;;;5101840;28;20023;-78
2024/01/29 02:28:27;;;;;;;28.13;22.67;;;4.10;1.00;;;;;;5116840;28;20062;-78
2024/01/29 02:30:54;;;;;;;35.85;29.10;;;3.80;99.90;;;;;;5101410;28;20032;-78
2024/01/29 02:33:20;;;;;;;38.03;30.85;;;3.60;99.90;;;;;;5101685;28;20055;-77
2024/01/29 02:35:48;;;;;;;35.95;32.15;;;3.10;1.00;;;;;;5100477;28;20478;-78
2024/01/29 02:38:14;;;;;;;35.00;31.17;;;2.80;1.00;;;;;;5084439;28;20031;-78
2024/01/29 02:40:40;;;;;;;33.45;30.20;;;2.60;1.00;;;;;;5101798;28;20399;-78
2024/01/29 02:43:05;;;;;;;32.05;28.90;;;2.40;1.00;;;;;;5103084;28;20028;-79
2024/01/29 02:45:31;;;;;;;34.83;31.15;;;2.30;1.00;;;;;;5081057;28;20094;-78
2024/01/29 02:47:57;;;;;;;33.97;30.60;;;2.00;1.00;;;;;;5103127;28;20093;-78
2024/01/29 02:50:22;;;;;;;35.63;31.93;;;1.90;1.00;;;;;;5081632;28;20031;-78
2024/01/29 02:52:49;;;;;;;35.67;31.20;;;1.80;1.00;;;;;;5104496;28;20537;-78
2024/01/29 02:55:15;;;;;;;36.07;32.43;;;1.80;1.00;;;;;;5104185;28;20043;-78
2024/01/29 02:57:40;;;;;;;39.87;35.67;;;1.70;1.00;;;;;;5105230;28;20487;-78
2024/01/29 03:00:07;;;;;;;43.67;39.13;;;1.60;12.90;;;;;;5086629;28;20388;-78
2024/01/29 03:02:33;;;;;;;39.03;34.87;;;1.30;41.50;;;;;;5104644;28;20076;-77
2024/01/29 03:04:58;;;;;;;38.50;34.50;;;1.30;45.10;;;;;;5106965;28;20098;-78
2024/01/29 03:07:24;;;;;;;39.07;35.13;;;1.40;31.10;;;;;;5105799;28;20023;-78
2024/01/29 03:09:50;;;;;;;36.13;32.43;;;1.40;33.30;;;;;;5084139;28;20020;-78
2024/01/29 03:12:16;;;;;;;37.87;34.03;;;1.40;26.60;;;;;;5103154;28;20024;-78
2024/01/29 03:14:41;;;;;;;38.13;33.43;;;1.40;23.30;;;;;;5106680;28;20494;-78
2024/01/29 03:17:08;;;;;;;36.33;32.77;;;1.30;12.90;;;;;;5103907;28;20158;-78
2024/01/29 03:19:33;;;;;;;39.60;35.40;;;1.30;19.60;;;;;;5106085;28;20515;-78
2024/01/29 03:21:59;;;;;;;37.53;33.67;;;1.30;29.00;;;;;;5119221;27;20027;-77
2024/01/29 03:24:25;;;;;;;41.80;37.43;;;1.20;34.80;;;;;;5121092;27;20031;-77
2024/01/29 03:26:51;;;;;;;37.53;33.73;;;1.10;45.40;;;;;;5103965;28;20012;-78
2024/01/29 03:29:16;;;;;;;41.33;36.93;;;1.10;56.60;;;;;;5120468;27;20023;-78
2024/01/29 03:31:42;;;;;;;42.57;37.77;;;1.10;49.50;;;;;;5084030;28;20031;-77
2024/01/29 03:34:08;;;;;;;55.10;42.23;;;1.00;48.30;;;;;;5104961;28;20051;-78
2024/01/29 03:36:34;;;;;;;67.17;39.20;;;0.90;48.10;;;;;;5106490;28;20008;-77
2024/01/29 03:38:59;;;;;;;46.93;40.43;;;0.60;58.40;;;;;;5121753;27;20521;-77
2024/01/29 03:41:26;;;;;;;45.47;39.83;;;0.70;64.80;;;;;;5106830;28;20049;-78
2024/01/29 03:43:51;;;;;;;44.10;38.57;;;0.70;51.40;;;;;;5103420;28;20024;-78
2024/01/29 03:46:17;;;;;;;44.87;39.93;;;0.70;54.60;;;;;;5119384;27;20020;-77
2024/01/29 03:48:43;;;;;;;44.77;39.50;;;0.60;58.40;;;;;;5109925;28;20062;-78
2024/01/29 03:51:09;;;;;;;44.17;38.00;;;0.70;61.70;;;;;;5119260;27;20115;-78
2024/01/29 03:53:35;;;;;;;41.23;36.73;;;0.60;57.90;;;;;;5105543;28;20028;-77
2024/01/29 03:56:00;;;;;;;42.83;38.23;;;0.60;56.70;;;;;;5103375;28;20024;-78
2024/01/29 03:58:26;;;;;;;39.83;35.53;;;0.50;35.60;;;;;;5104998;28;20443;-78
2024/01/29 04:00:52;;;;;;;41.20;36.67;;;0.50;49.80;;;;;;5085422;28;20052;-78
2024/01/29 04:03:18;;;;;;;39.50;33.20;;;0.60;42.70;;;;;;5117365;27;20028;-78
2024/01/29 04:05:44;;;;;;;38.50;34.50;;;0.70;35.90;;;;;;5103863;28;20030;-77
2024/01/29 04:08:10;;;;;;;36.87;32.87;;;0.60;24.40;;;;;;5102210;28;20455;-77
2024/01/29 04:10:36;;;;;;;39.70;34.77;;;0.60;3.20;;;;;;5083407;28;20054;-78
2024/01/29 04:13:02;;;;;;;37.90;33.90;;;0.60;10.10;;;;;;5105138;28;20502;-77
2024/01/29 04:15:27;;;;;;;38.00;33.90;;;0.60;20.90;;;;;;5102354;28;20020;-78
2024/01/29 04:17:53;;;;;;;40.50;36.20;;;0.70;21.00;;;;;;5105558;28;20020;-78
2024/01/29 04:20:19;;;;;;;40.43;36.20;;;0.60;29.10;;;;;;5105595;28;20016;-78
2024/01/29 04:22:44;;;;;;;66.60;45.47;;;0.60;37.30;;;;;;5121581;27;20027;-78
2024/01/29 04:25:10;;;;;;;62.37;40.87;;;0.50;48.40;;;;;;5101403;28;20035;-77
2024/01/29 04:27:36;;;;;;;41.50;34.63;;;0.40;48.20;;;;;;5104711;28;20023;-78
2024/01/29 04:30:02;;;;;;;37.50;33.37;;;0.40;14.40;;;;;;5102448;28;20493;-77
2024/01/29 04:32:29;;;;;;;34.97;31.37;;;0.50;9.40;;;;;;5119545;27;20028;-78
2024/01/29 04:34:54;;;;;;;31.50;28.10;;;0.40;10.30;;;;;;5084882;28;20054;-78
2024/01/29 04:37:20;;;;;;;31.57;28.30;;;0.30;1.00;;;;;;5118521;27;20505;-78
2024/01/29 04:39:46;;;;;;;31.67;28.47;;;0.30;1.00;;;;;;5103846;28;20049;-78
2024/01/29 04:42:12;;;;;;;31.07;27.70;;;0.30;1.00;;;;;;5101463;28;20032;-78
2024/01/29 04:44:38;;;;;;;30.50;27.40;;;0.20;7.10;;;;;;5102090;28;20020;-78
2024/01/29 04:47:03;;;;;;;29.53;26.53;;;0.30;12.70;;;;;;5104380;28;20030;-78
2024/01/29 04:49:29;;;;;;;28.10;25.40;;;0.30;5.10;;;;;;5105093;28;20054;-77
2024/01/29 04:51:55;;;;;;;31.10;27.90;;;0.30;3.10;;;;;;5100834;28;20506;-78
2024/01/29 04:54:21;;;;;;;30.63;27.40;;;0.30;10.30;;;;;;5104565;28;20482;-78
2024/01/29 04:56:46;;;;;;;32.50;29.23;;;0.30;22.60;;;;;;5100566;28;20495;-78
2024/01/29 04:59:12;;;;;;;33.37;29.93;;;0.20;34.50;;;;;;5101363;28;20031;-78
2024/01/29 05:01:37;;;;;;;29.40;26.50;;;0.30;41.00;;;;;;5104941;28;20294;-78
2024/01/29 05:04:04;;;;;;;28.00;25.10;;;0.10;1.00;;;;;;5085154;28;20020;-78
2024/01/29 05:06:30;;;;;;;28.10;25.40;;;0.10;1.00;;;;;;5102267;28;20016;-78
2024/01/29 05:08:55;;;;;;;29.77;26.87;;;0.10;1.00;;;;;;5104653;28;20032;-78
2024/01/29 05:11:21;;;;;;;29.80;26.83;;;0.10;1.00;;;;;;5117890;27;20593;-77
2024/01/29 05:13:47;;;;;;;29.20;26.20;;;0.10;1.00;;;;;;5104416;28;20027;-78
2024/01/29 05:16:15;;;;;;;31.20;28.03;;;0.00;17.40;;;;;;5118493;27;20031;-78
2024/01/29 05:18:41;;;;;;;32.30;29.10;;;0.10;33.40;;;;;;5120132;27;20565;-78
2024/01/29 05:21:07;;;;;;;29.93;26.93;;;0.10;23.00;;;;;;5104323;28;20120;-78
2024/01/29 05:23:33;;;;;;;29.50;26.53;;;0.10;23.10;;;;;;5100471;28;20044;-78
2024/01/29 05:26:00;;;;;;;30.43;27.23;;;0.10;19.40;;;;;;5107493;28;20019;-78
2024/01/29 05:28:25;;;;;;;33.93;28.73;;;0.10;33.70;;;;;;5101064;28;20032;-78
2024/01/29 05:30:51;;;;;;;29.07;26.13;;;0.10;44.20;;;;;;5102946;28;20364;-78
2024/01/29 05:33:17;;;;;;;28.60;25.67;;;0.10;13.40;;;;;;5086441;28;20031;-78
2024/01/29 05:35:43;;;;;;;30.73;26.57;;;0.10;9.60;;;;;;5104183;28;20024;-78
2024/01/29 05:38:09;;;;;;;28.90;26.10;;;0.10;16.70;;;;;;5101784;28;20069;-78
2024/01/29 05:40:34;;;;;;;30.87;27.60;;;0.10;14.40;;;;;;5103540;28;20050;-78
2024/01/29 05:43:00;;;;;;;31.47;27.80;;;0.10;14.90;;;;;;5084318;28;20020;-78
2024/01/29 05:45:26;;;;;;;38.83;31.87;;;0.10;25.10;;;;;;5116829;27;20020;-78
2024/01/29 05:47:52;;;;;;;39.00;30.07;;;0.10;54.60;;;;;;5119591;27;20032;-78
2024/01/29 05:50:17;;;;;;;45.03;32.90;;;0.20;52.30;;;;;;5103823;28;20111;-78
2024/01/29 05:52:43;;;;;;;44.27;32.73;;;0.20;48.70;;;;;;5103611;28;20084;-78
2024/01/29 05:55:09;;;;;;;40.40;30.87;;;0.30;46.90;;;;;;5099915;28;20031;-78
2024/01/29 05:57:35;;;;;;;33.63;28.73;;;0.30;36.40;;;;;;5118987;27;20058;-78
2024/01/29 06:00:03;;;;;;;32.67;28.23;;;0.20;1.30;;;;;;5099607;28;20447;-78
2024/01/29 06:02:28;;;;;;;35.43;30.37;;;0.20;26.50;;;;;;5100751;28;20020;-78
2024/01/29 06:04:54;;;;;;;41.80;32.00;;;0.20;46.20;;;;;;5117944;27;20387;-78
2024/01/29 06:07:20;;;;;;;36.67;30.30;;;0.20;21.00;;;;;;5116841;27;20066;-78
2024/01/29 06:09:46;;;;;;;36.93;31.30;;;0.10;7.20;;;;;;5092466;28;20399;-78
2024/01/29 06:12:11;;;;;;;42.70;34.17;;;0.10;5.10;;;;;;5111260;28;20106;-78
2024/01/29 06:14:37;;;;;;;44.70;35.77;;;0.00;1.00;;;;;;5110404;28;20026;-78
2024/01/29 06:17:03;;;;;;;46.00;38.47;;;0.10;1.00;;;;;;5092645;28;20026;-78
2024/01/29 06:19:30;;;;;;;48.17;37.67;;;0.00;6.30;;;;;;5103958;28;20030;-78
2024/01/29 06:21:55;;;;;;;57.10;40.20;;;0.10;17.40;;;;;;5103265;28;20030;-77
2024/01/29 06:24:21;;;;;;;58.43;41.37;;;0.00;16.10;;;;;;5099328;28;20021;-78
2024/01/29 06:26:47;;;;;;;50.23;38.77;;;0.00;11.40;;;;;;5121589;27;20020;-77
2024/01/29 06:29:13;;;;;;;55.60;40.07;;;0.00;11.90;;;;;;5119853;27;20043;-78
2024/01/29 06:31:40;;;;;;;57.93;40.07;;;-0.10;7.60;;;;;;5089413;28;20139;-78
2024/01/29 06:34:06;;;;;;;50.20;38.20;;;0.00;13.30;;;;;;5106184;28;20394;-79
2024/01/29 06:36:32;;;;;;;51.70;40.90;;;0.00;16.90;;;;;;5087014;28;20156;-78
2024/01/29 06:39:00;;;;;;;54.70;41.33;;;0.00;17.40;;;;;;5107198;28;20511;-78
2024/01/29 06:41:27;;;;;;;54.43;38.17;;;0.00;20.40;;;;;;5107341;28;20059;-78
2024/01/29 06:43:54;;;;;;;53.03;39.43;;;0.10;33.40;;;;;;5104160;28;20107;-78
2024/01/29 06:46:20;;;;;;;56.23;39.47;;;0.10;37.90;;;;;;5106984;28;20026;-78
2024/01/29 06:48:47;;;;;;;52.33;40.10;;;0.10;9.40;;;;;;5106651;28;20023;-78
2024/01/29 06:51:15;;;;;;;50.90;38.57;;;0.00;1.00;;;;;;5101515;28;20032;-77
2024/01/29 06:53:40;;;;;;;59.33;39.67;;;0.00;4.60;;;;;;5104241;28;20022;-78
2024/01/29 06:56:06;;;;;;;64.33;38.37;;;0.10;27.40;;;;;;5092864;28;20451;-78
2024/01/29 06:58:33;;;;;;;62.07;38.77;;;0.10;44.50;;;;;;5103436;28;20027;-78
2024/01/29 07:00:59;;;;;;;56.57;36.57;;;0.10;44.20;;;;;;5102950;28;20318;-77
2024/01/29 07:03:25;;;;;;;60.70;37.30;;;0.10;45.00;;;;;;5102710;28;20011;-78
2024/01/29 07:05:51;;;;;;;56.93;35.73;;;0.10;44.80;;;;;;5093093;28;20020;-77
2024/01/29 07:08:17;;;;;;;56.37;35.33;;;0.10;55.10;;;;;;5121195;27;20031;-78
2024/01/29 07:10:44;;;;;;;44.10;33.53;;;0.20;58.60;;;;;;5106321;28;20020;-78
2024/01/29 07:13:10;;;;;;;45.43;31.43;;;0.30;44.30;;;;;;5088456;28;20110;-78
2024/01/29 07:15:36;;;;;;;51.43;33.17;;;0.30;66.70;;;;;;5102664;28;20032;-77
2024/01/29 07:18:02;;;;;;;43.50;29.77;;;0.30;74.20;;;;;;5123066;27;20035;-77
2024/01/29 07:20:29;;;;;;;52.97;29.90;;;0.40;91.20;;;;;;5105729;28;20023;-78
2024/01/29 07:22:56;;;;;;;40.63;27.07;;;0.40;92.20;;;;;;5119764;27;20027;-78
2024/01/29 07:25:22;;;;;;;43.17;25.73;;;0.50;95.70;;;;;;5120627;27;20073;-78
2024/01/29 07:27:48;;;;;;;40.20;26.23;;;0.50;96.10;;;;;;5104361;28;20031;-77
2024/01/29 07:30:14;;;;;;;51.57;26.13;;;0.60;97.60;;;;;;5104116;28;20020;-78
2024/01/29 07:32:40;;;;;;;45.13;25.03;;;0.60;99.90;;;;;;5092760;28;20028;-78
2024/01/29 07:35:07;;;;;;;53.03;27.03;;;0.70;99.90;;;;;;5103354;28;20024;-78
2024/01/29 07:37:32;;;;;;;47.13;28.07;;;0.90;99.90;;;;;;5104679;28;20063;-78
2024/01/29 07:39:58;;;;;;;47.53;28.87;;;1.00;99.90;;;;;;5106079;28;20109;-78
2024/01/29 07:42:24;;;;;;;47.30;31.33;;;1.00;99.90;;;;;;5102245;28;20476;-78
2024/01/29 07:44:51;;;;;;;63.73;35.83;;;1.10;99.90;;;;;;5109824;28;20034;-78
2024/01/29 07:47:17;;;;;;;56.97;35.93;;;1.00;96.90;;;;;;5104749;28;20031;-78
2024/01/29 07:49:43;;;;;;;59.30;34.77;;;1.10;95.50;;;;;;5104957;28;20051;-77
2024/01/29 07:52:09;;;;;;;60.53;32.30;;;1.10;97.20;;;;;;5103492;28;20110;-77
2024/01/29 07:54:35;;;;;;;57.97;28.93;;;1.10;96.80;;;;;;5087650;28;20127;-78
2024/01/29 07:57:01;;;;;;;52.37;26.90;;;1.20;99.90;;;;;;5103899;28;20024;-78
2024/01/29 07:59:27;;;;;;;48.77;24.30;;;1.20;98.70;;;;;;5094719;28;20032;-78
2024/01/29 08:01:53;;;;;;;50.30;22.50;;;1.30;98.70;;;;;;5103166;28;20024;-77
2024/01/29 08:04:18;;;;;;;44.53;21.57;;;1.40;98.50;;;;;;5083472;28;20020;-78
2024/01/29 08:06:44;;;;;;;33.10;21.67;;;1.50;98.90;;;;;;5105122;28;20471;-78
2024/01/29 08:09:10;;;;;;;41.30;21.80;;;1.50;99.90;;;;;;5105754;28;20016;-77
2024/01/29 08:11:36;;;;;;;33.53;20.47;;;1.70;99.90;;;;;;5109308;28;20033;-78
2024/01/29 08:14:02;;;;;;;35.47;20.23;;;1.80;99.90;;;;;;5101900;28;20156;-78
2024/01/29 08:16:27;;;;;;;37.03;22.90;;;1.90;99.90;;;;;;5106116;28;20024;-78
2024/01/29 08:18:53;;;;;;;41.93;25.23;;;2.00;99.90;;;;;;5083341;28;20031;-78
2024/01/29 08:21:19;;;;;;;47.50;24.60;;;2.10;99.90;;;;;;5105343;28;20024;-78
2024/01/29 08:23:45;;;;;;;42.67;25.10;;;2.20;99.90;;;;;;5103553;28;20020;-77
2024/01/29 08:26:11;;;;;;;39.83;24.63;;;2.20;99.90;;;;;;5104530;28;20020;-78
2024/01/29 08:28:36;;;;;;;42.67;26.70;;;2.30;99.90;;;;;;5103894;28;20089;-78
2024/01/29 08:31:02;;;;;;;36.33;23.57;;;2.40;99.90;;;;;;5106077;28;20059;-78
2024/01/29 08:33:29;;;;;;;34.97;21.27;;;2.50;99.90;;;;;;5103087;28;20052;-78
2024/01/29 08:35:57;;;;;;;25.93;19.33;;;2.50;95.20;;;;;;5120421;27;20544;-77
2024/01/29 08:38:23;;;;;;;25.17;17.50;;;2.60;94.60;;;;;;5102279;28;20072;-77
2024/01/29 08:40:50;;;;;;;24.00;17.13;;;2.70;93.00;;;;;;5083086;28;20498;-78
2024/01/29 08:43:16;;;;;;;23.27;16.27;;;2.80;79.70;;;;;;5085491;28;20026;-77
2024/01/29 08:45:41;;;;;;;17.20;14.30;;;2.90;55.70;;;;;;5066457;28;20062;-77
2024/01/29 08:48:07;;;;;;;19.57;14.27;;;2.90;48.00;;;;;;5064737;28;20066;-78
2024/01/29 08:50:34;;;;;;;25.70;15.27;;;3.00;44.00;;;;;;5084076;28;20024;-77
2024/01/29 08:53:00;;;;;;;26.60;18.57;;;3.00;52.60;;;;;;5083303;28;20020;-77
2024/01/29 08:55:26;;;;;;;32.27;22.33;;;3.10;62.50;;;;;;5082721;28;20487;-78
2024/01/29 08:57:52;;;;;;;48.50;34.93;;;3.20;92.40;;;;;;5081101;28;20036;-77
2024/01/29 09:00:18;;;;;;;51.73;36.37;;;3.30;99.90;;;;;;5078584;28;20067;-78
2024/01/29 09:02:45;;;;;;;52.10;34.93;;;3.40;99.90;;;;;;5084151;28;20028;-77
2024/01/29 09:05:11;;;;;;;44.37;36.07;;;3.40;99.90;;;;;;5081753;28;20032;-78
2024/01/29 09:07:37;;;;;;;56.83;38.35;;;3.40;99.90;;;;;;5085468;28;20495;-78
2024/01/29 09:10:03;;;;;;;50.78;39.20;;;3.40;99.90;;;;;;5084851;28;20430;-78
2024/01/29 09:12:28;;;;;;;57.03;40.63;;;3.30;99.90;;;;;;5081509;28;20025;-75
2024/01/29 09:14:54;;;;;;;51.07;40.40;;;3.30;99.90;;;;;;5084860;28;20055;-78
2024/01/29 09:17:20;;;;;;;63.17;38.67;;;3.30;99.90;;;;;;5084517;28;20035;-77
2024/01/29 09:19:46;;;;;;;49.13;37.15;;;3.30;99.90;;;;;;5084142;28;20035;-78
2024/01/29 09:22:12;;;;;;;48.23;37.60;;;3.30;99.90;;;;;;5064953;28;20429;-78
2024/01/29 09:24:38;;;;;;;42.13;35.03;;;3.40;99.90;;;;;;5088355;28;20016;-78
2024/01/29 09:27:03;;;;;;;41.08;34.05;;;3.50;99.90;;;;;;5083084;28;20220;-78
2024/01/29 09:29:29;;;;;;;43.20;31.90;;;3.50;99.90;;;;;;5084067;28;20024;-78
2024/01/29 09:31:55;;;;;;;39.20;31.38;;;3.50;99.90;;;;;;5082935;28;20025;-78
2024/01/29 09:34:22;;;;;;;41.42;32.08;;;3.50;99.90;;;;;;5082009;28;20021;-78
2024/01/29 09:36:48;;;;;;;39.70;32.08;;;3.50;99.90;;;;;;5063546;28;20020;-78
2024/01/29 09:39:14;;;;;;;39.13;33.60;;;3.60;99.90;;;;;;5087775;28;20047;-78
2024/01/29 09:41:40;;;;;;;38.67;34.03;;;3.60;99.90;;;;;;5103300;28;20040;-78
2024/01/29 09:44:07;;;;;;;43.35;32.55;;;3.60;99.90;;;;;;5110152;28;20016;-78
2024/01/29 09:46:40;;;;;;;41.70;34.73;;;3.60;99.90;;;;;;5085533;28;20020;-78
2024/01/29 09:49:07;;;;;;;44.80;34.85;;;3.60;99.90;;;;;;5104290;28;20027;-77
2024/01/29 09:51:33;;;;;;;40.95;34.40;;;3.50;99.90;;;;;;5095879;28;20035;-78
2024/01/29 09:54:05;;;;;;;42.85;34.20;;;3.50;99.90;;;;;;5106890;28;20028;-77
2024/01/29 09:56:32;;;;;;;45.17;34.25;;;3.50;99.90;;;;;;5102538;28;20476;-77
2024/01/29 09:58:58;;;;;;;42.65;34.95;;;3.50;99.90;;;;;;5106310;28;20016;-77
2024/01/29 10:01:23;;;;;;;43.53;35.13;;;3.50;99.90;;;;;;5102346;28;20016;-78
2024/01/29 10:03:49;;;;;;;43.08;33.97;;;3.60;99.90;;;;;;5104231;28;20493;-78
2024/01/29 10:06:16;;;;;;;41.78;34.90;;;3.70;99.90;;;;;;5104991;28;20023;-77
2024/01/29 10:08:42;;;;;;;43.05;35.88;;;3.70;99.90;;;;;;5105225;28;20434;-77
2024/01/29 10:11:08;;;;;;;44.22;34.53;;;3.70;99.90;;;;;;5089777;28;20027;-77
2024/01/29 10:13:35;;;;;;;40.50;32.28;;;3.80;99.90;;;;;;5105763;28;20024;-77
2024/01/29 10:16:00;;;;;;;41.75;33.33;;;3.90;99.90;;;;;;5100753;28;20036;-77
2024/01/29 10:18:26;;;;;;;42.25;32.63;;;3.90;99.90;;;;;;5097611;28;20452;-77
2024/01/29 10:21:00;;;;;;;42.05;33.53;;;4.00;99.90;;;;;;5100396;28;20164;-77
2024/01/29 10:23:27;;;;;;;40.92;33.00;;;4.00;99.90;;;;;;5100358;28;20019;-77
2024/01/29 10:25:57;;;;;;;41.53;33.38;;;4.10;99.90;;;;;;5109239;28;20058;-77
2024/01/29 10:28:23;;;;;;;40.88;33.03;;;4.10;99.00;;;;;;5096482;28;20071;-75
2024/01/29 10:30:50;;;;;;;38.67;32.47;;;4.10;96.90;;;;;;5100449;28;20478;-77
2024/01/29 10:33:16;;;;;;;42.08;32.75;;;4.20;91.80;;;;;;5091996;28;20027;-77
2024/01/29 10:35:41;;;;;;;42.25;32.60;;;4.30;93.50;;;;;;5089048;28;20423;-77
2024/01/29 10:38:07;;;;;;;38.35;32.47;;;4.40;91.50;;;;;;5095779;28;20031;-77
2024/01/29 10:40:35;;;;;;;42.75;34.80;;;4.40;93.20;;;;;;5123425;28;20048;-77
2024/01/29 10:43:01;;;;;;;44.15;35.35;;;4.50;94.80;;;;;;5119690;28;20475;-77
2024/01/29 10:45:28;;;;;;;41.60;35.08;;;4.60;92.80;;;;;;5099860;28;20039;-77
2024/01/29 10:48:07;;;;;;;44.90;33.80;;;4.60;94.70;;;;;;5099434;28;20023;-77
2024/01/29 10:50:33;;;;;;;44.90;34.53;;;4.70;89.40;;;;;;5095748;28;20020;-75
2024/01/29 10:53:01;;;;;;;43.58;35.40;;;4.70;88.30;;;;;;5104897;28;20407;-77
2024/01/29 10:55:30;;;;;;;43.20;34.30;;;4.80;90.40;;;;;;5077863;28;20024;-78
2024/01/29 10:58:01;;;;;;;44.05;34.53;;;4.80;90.20;;;;;;5099130;28;20376;-77
2024/01/29 11:00:28;;;;;;;47.95;35.75;;;4.90;92.90;;;;;;5095810;28;20013;-75
2024/01/29 11:02:57;;;;;;;55.63;37.63;;;5.00;90.20;;;;;;5100455;28;20032;-77
2024/01/29 11:05:23;;;;;;;51.92;39.55;;;5.10;78.90;;;;;;5092923;28;20029;-77
2024/01/29 11:07:51;;;;;;;53.15;39.22;;;5.20;72.90;;;;;;5095767;28;20036;-77
2024/01/29 11:10:23;;;;;;;53.50;41.63;;;5.20;90.70;;;;;;5100476;28;20247;-77
2024/01/29 11:12:51;;;;;;;;;;;5.20;91.70;;;;;;5101123;28;20027;-77
2024/01/29 11:15:17;;;;;;;68.03;44.30;;;5.20;94.00;;;;;;5097099;28;19904;-77
2024/01/29 11:17:44;;;;;;;70.10;51.45;;;5.20;99.70;;;;;;5102171;28;20038;-77
2024/01/29 11:20:12;;;;;;;68.30;51.00;;;5.20;99.90;;;;;;5103403;28;20027;-75
2024/01/29 11:22:53;;;;;;;66.43;46.80;;;5.20;99.90;;;;;;5118588;27;20028;-71
2024/01/29 11:25:19;;;;;;;63.95;49.55;;;5.20;99.90;;;;;;5100942;28;20059;-71
2024/01/29 11:27:46;;;;;;;58.30;44.80;;;5.20;99.90;;;;;;5102053;28;20535;-72
2024/01/29 11:30:16;;;;;;;60.00;44.75;;;5.30;99.90;;;;;;5105812;28;20513;-72
2024/01/29 11:32:41;;;;;;;62.38;45.53;;;5.30;99.90;;;;;;5107957;28;20708;-72
2024/01/29 11:35:30;;;;;;;59.97;46.50;;;5.40;99.90;;;;;;5104588;28;20059;-72
2024/01/29 11:38:09;;;;;;;59.45;44.20;;;5.40;99.90;;;;;;5107408;28;20024;-73
2024/01/29 11:40:41;;;;;;;60.97;44.17;;;5.50;99.90;;;;;;5103347;28;20459;-73
2024/01/29 11:43:16;;;;;;;;;;;5.50;99.90;;;;;;5082402;28;20563;-73
2024/01/29 11:45:55;;;;;;;59.53;46.30;;;5.50;99.90;;;;;;5099455;28;19904;-73
2024/01/29 11:48:23;;;;;;;60.40;45.03;;;5.50;99.90;;;;;;5102794;28;20103;-73
2024/01/29 11:50:51;;;;;;;60.30;45.33;;;5.50;99.90;;;;;;5100922;28;20019;-73
2024/01/29 11:53:25;;;;;;;58.67;44.13;;;5.50;99.90;;;;;;5107509;28;20021;-73
2024/01/29 11:55:51;;;;;;;62.13;44.42;;;5.50;99.90;;;;;;5098423;28;20022;-73
2024/01/29 11:58:18;;;;;;;63.28;45.40;;;5.60;99.90;;;;;;5078296;28;20447;-72
2024/01/29 12:00:45;;;;;;;58.80;43.95;;;5.50;99.90;;;;;;5119806;27;20112;-73
2024/01/29 12:03:20;;;;;;;61.72;43.13;;;5.50;99.90;;;;;;5099394;28;20024;-73
2024/01/29 12:05:47;;;;;;;70.43;49.53;;;5.50;99.90;;;;;;5103201;28;20479;-73
2024/01/29 12:08:17;;;;;;;62.53;45.33;;;5.50;99.90;;;;;;5110976;27;20024;-73
2024/01/29 12:10:44;;;;;;;63.05;45.17;;;5.60;99.90;;;;;;5098605;28;20081;-73
2024/01/29 12:13:14;;;;;;;61.95;45.10;;;5.70;99.90;;;;;;5105835;28;20429;-73
2024/01/29 12:15:41;;;;;;;60.45;43.05;;;5.80;99.90;;;;;;5105789;28;20483;-72
2024/01/29 12:18:13;;;;;;;56.45;44.92;;;5.90;99.90;;;;;;5103494;28;20408;-73
2024/01/29 12:20:38;;;;;;;;;;;5.90;99.90;;;;;;5080103;28;20020;-73
2024/01/29 12:23:05;;;;;;;57.67;42.85;;;6.00;99.80;;;;;;5076645;28;19911;-73
2024/01/29 12:25:31;;;;;;;59.88;45.55;;;6.00;99.90;;;;;;5099360;28;20016;-72
2024/01/29 12:28:04;;;;;;;64.20;46.35;;;6.00;99.10;;;;;;5101337;28;20039;-74
2024/01/29 12:30:30;;;;;;;67.45;46.00;;;6.10;99.90;;;;;;5074719;28;20020;-73
2024/01/29 12:32:56;;;;;;;63.38;48.55;;;6.10;99.90;;;;;;5112478;27;20674;-72
2024/01/29 12:35:29;;;;;;;60.17;45.63;;;6.10;99.80;;;;;;5095847;28;20153;-73
2024/01/29 12:38:13;;;;;;;68.63;48.22;;;6.20;97.40;;;;;;5095595;28;20528;-73